Tropical Cyclones
[Index]
Main Index Home Page Stock Weather Photos Extreme Storms Discussion Storm News and Storm Chasing Reports Tropical Cyclones / Hurricanes / Typhoons Weather Data and Links Wild Fires / Bushfires Weather Observation Techniques Weather Picture Catalogue Tornado Pictures and Reports Stock Video Footage and DVDs for sale
Season 2004-2005 Tropical Cyclone JUDY Track Map
Season 2004-2005 Summaries (Operational Data): [AU] [SIO] [SPAC] [SH]
<<- Previous TC | 2004-2005 Season | Next TC ->>

click for intensity scale information  Lat/long Grid: Show Hide

 Date Labels: Show Hide

Operational Tropical Cyclone Data

Name: JUDY
Number: 05P1

22 Dec 2004 00:00 UTC to 27 Dec 2004 06:00 UTC

    date/time    lat    long     hPa   cat  kts
2004-12-22 00   16.0   146.0W   1003         25          
2004-12-22 06   16.0   146.0W   1003         25          
2004-12-22 12   16.0   147.0W   1003         25          
2004-12-22 21   17.2   146.5W   1004         25          
2004-12-23 00   17.5   146.8W   1004         25          
2004-12-23 06   17.8   146.8W   1002         25          
2004-12-23 12   18.0   145.8W   1002         25          
2004-12-23 18   17.8   145.4W   1000         25          
2004-12-24 00   18.1   145.0W    999         30          
2004-12-24 06   18.5   145.0W    998         30          
2004-12-24 12   19.0   145.2W    998         30          
2004-12-24 19   19.5   145.2W    993    1    40          
2004-12-25 00   20.3   145.6W    993    1    40          
2004-12-25 06   20.9   145.7W    989    1    40          
2004-12-25 12   21.7   146.3W    989    1    40          
2004-12-25 18   22.5   146.7W    989    1    40          
2004-12-26 00   23.7   147.2W    989    1    40          
2004-12-26 06   24.4   147.1W    990    1    40          
2004-12-26 12   25.0   147.0W    990    1    40          
2004-12-26 18   27.0   147.5W    993    1    40          
2004-12-27 00   28.5   146.5W    996    1    35          
2004-12-27 06   29.5   145.5W    998    1    35          
Winds are 10-min average.

Tropical cyclone tracks developed by Michael Bath using operational warnings and advisories and Google Maps.


[Australian Severe Weather index] [Copyright Notice] [Email Contacts] [Search This Site] [Privacy Policy]
Document: tropical_cyclone_judy.htm Updated: 28 May 2013